METAR AND TAF INFORMATION
METAR FOR EHGR
ADDS - METARS form results

(2038 UTC 21 February 2020)
Data provider http://aviationweather.gov/metar/data/
 
METAR text: EHGR 212025Z AUTO 22014KT 180V260 9999 BKN028 OVC033 09/04 Q1023 BLU
Conditions at: EHGR (GILZE-RIJEN RNLA, NL) observed 2025 UTC 21 February 2020
Temperature: 9.0°C (48°F)
Dewpoint: 4.0°C (39°F) [RH = 71%]
Pressure (altimeter): 30.21 inches Hg (1023.0 mb)
Winds: from the SW (220 degrees) at 16 MPH (14 knots; 7.2 m/s)
Visibility: 6 or more miles (10+ km)
Ceiling: 2800 feet AGL
Clouds: broken clouds at 2800 feet AGL
overcast cloud deck at 3300 feet AGL
Weather: no significant weather observed at this time

METAR text: EHGR 211955Z AUTO 21012KT 170V250 9999 BKN030 OVC034 09/04 Q1023 BLU
Conditions at: EHGR (GILZE-RIJEN RNLA, NL) observed 1955 UTC 21 February 2020
Temperature: 9.0°C (48°F)
Dewpoint: 4.0°C (39°F) [RH = 71%]
Pressure (altimeter): 30.21 inches Hg (1023.0 mb)
Winds: from the SSW (210 degrees) at 14 MPH (12 knots; 6.2 m/s)
Visibility: 6 or more miles (10+ km)
Ceiling: 3000 feet AGL
Clouds: broken clouds at 3000 feet AGL
overcast cloud deck at 3400 feet AGL
Weather: no significant weather observed at this time

Forecast for: EHGR (GILZE-RIJEN RNLA, NL)
Text: TAF EHGR 210945Z 2110/2122 22015KT 9999 SCT025
Forecast period: 1000 to 2200 UTC 21 February 2020
Forecast type: FROM: standard forecast or significant change
Winds: from the SW (220 degrees) at 17 MPH (15 knots; 7.7 m/s)
Visibility: 6 or more miles 10+ km)
Ceiling: at least 12,000 feet AGL
Clouds: scattered clouds at 2500 feet AGL
Weather: no significant weather forecast for this period
Text: BECMG 2110/2112 22015G28KT
Forecast period: 1000 to 2200 UTC 21 February 2020
Forecast type: BECOMING: Conditions expected to become as follows by 1200 UTC 21 February 2020
Winds: from the SW (220 degrees) at 17 MPH (15 knots; 7.7 m/s)
gusting to 32 MPH (28 knots; 14.4 m/s)
Visibility: 6 or more miles 10+ km)
Ceiling: at least 12,000 feet AGL
Clouds: scattered clouds at 2500 feet AGL
Weather: no significant weather forecast for this period

 AIRPORT MAP

 RUNWAY INFORMATION
Runway 02 Runway length 6549 ft Runway width 98 ft
Runway elevation 49 ft Runway displaced threshold 191 ft Runway heading 18
Runway 20 Runway length 6549 ft Runway width 98 ft
Runway elevation 40 ft Runway displaced threshold 192 ft Runway heading 198
Runway 10 Runway length 9118 ft Runway width 148 ft
Runway elevation 42 ft Runway displaced threshold 427 ft Runway heading 100
Runway 28 Runway length 9118 ft Runway width 148 ft
Runway elevation 38 ft Runway displaced threshold 331 ft Runway heading 280

 AIRPORT FREQUENCIES
Type ARR Name RAPCON WES Frequency 123.575 MHZ
Type GND Name GND Frequency 23.492 MHZ
Type TWR Name TWR Frequency 125.325 MHZ

 AIRPORT NEAR NAVIGATION AIDS
Type TACAN Name Gilze Rijen Frequency 116400 KHZ